Time;durP1;ratioP1;P1;durP2;ratioP2;P2;SDS_P1;SDS_P2;PMS_P1;PMS_P2;Temp;Humidity;BMP_temperature;BMP_pressure;BME280_temperature;BME280_humidity;BME280_pressure;Samples;Min_cycle;Max_cycle;Signal;HPM_P1;HPM_P2
2021/12/28 00:00:32;;;;;;;18.38;8.82;;;-5.00;99.90;;;;;;5015622;28;20030;-87
2021/12/28 00:02:59;;;;;;;18.17;8.90;;;-5.00;99.90;;;;;;5017043;28;20045;-87
2021/12/28 00:05:27;;;;;;;16.13;8.10;;;-5.00;99.90;;;;;;5015902;28;20037;-86
2021/12/28 00:07:52;;;;;;;22.48;10.65;;;-5.00;99.90;;;;;;5017785;28;20371;-86
2021/12/28 00:10:21;;;;;;;24.23;9.95;;;-5.00;99.90;;;;;;5023632;28;20026;-84
2021/12/28 00:12:47;;;;;;;18.20;9.90;;;-5.00;99.90;;;;;;5027519;28;20041;-84
2021/12/28 00:15:47;;;;;;;19.70;8.93;;;-5.00;99.90;;;;;;5022884;28;20404;-86
2021/12/28 00:18:08;;;;;;;16.85;8.50;;;-5.00;99.90;;;;;;5016196;28;20133;-84
2021/12/28 00:20:43;;;;;;;19.20;9.43;;;-5.00;99.90;;;;;;5017324;28;20087;-84
2021/12/28 00:23:18;;;;;;;17.17;8.60;;;-5.00;99.90;;;;;;5015071;28;20026;-84
2021/12/28 00:25:49;;;;;;;18.70;8.93;;;-5.00;99.90;;;;;;5014939;28;20190;-85
2021/12/28 00:28:17;;;;;;;18.27;8.75;;;-5.10;99.90;;;;;;5016943;28;20022;-84
2021/12/28 00:30:44;;;;;;;17.35;7.65;;;-5.00;99.90;;;;;;5016544;28;20392;-86
2021/12/28 00:33:10;;;;;;;18.55;9.10;;;-5.00;99.90;;;;;;5017382;28;20037;-86
2021/12/28 00:35:39;;;;;;;16.40;8.57;;;-5.00;99.90;;;;;;5015585;28;20368;-85
2021/12/28 00:38:08;;;;;;;15.00;7.50;;;-5.00;99.90;;;;;;5015440;28;20034;-88
2021/12/28 00:40:35;;;;;;;16.90;8.55;;;-5.00;99.90;;;;;;5014796;28;20076;-86
2021/12/28 00:43:01;;;;;;;16.73;8.55;;;-5.00;99.90;;;;;;5016466;28;20026;-85
2021/12/28 00:45:28;;;;;;;19.83;9.95;;;-5.00;99.90;;;;;;5016545;28;20034;-86
2021/12/28 00:47:54;;;;;;;18.67;9.32;;;-5.00;99.90;;;;;;5021185;28;20072;-86
2021/12/28 00:50:20;;;;;;;21.35;9.85;;;-4.90;99.90;;;;;;5035830;28;20025;-85
2021/12/28 00:52:47;;;;;;;20.55;9.70;;;-4.90;99.90;;;;;;5018479;28;20026;-84
2021/12/28 00:55:17;;;;;;;18.75;8.77;;;-5.00;99.90;;;;;;5034836;28;20045;-87
2021/12/28 00:57:44;;;;;;;16.73;9.20;;;-4.90;99.90;;;;;;5018558;28;20041;-87
2021/12/28 01:00:15;;;;;;;17.05;8.93;;;-4.90;99.90;;;;;;5035539;28;20033;-86
2021/12/28 01:02:41;;;;;;;19.75;9.57;;;-4.90;99.80;;;;;;5018110;28;20025;-87
2021/12/28 01:05:08;;;;;;;19.63;9.25;;;-4.90;99.70;;;;;;5017409;28;20071;-87
2021/12/28 01:07:34;;;;;;;19.52;9.30;;;-4.90;99.60;;;;;;5035859;28;20065;-87
2021/12/28 01:10:00;;;;;;;18.20;9.27;;;-4.90;99.50;;;;;;5017520;28;20403;-88
2021/12/28 01:12:27;;;;;;;16.80;8.30;;;-4.90;99.50;;;;;;5035474;28;20036;-86
2021/12/28 01:14:53;;;;;;;18.85;8.20;;;-4.90;99.70;;;;;;5019983;28;20029;-84
2021/12/28 01:17:18;;;;;;;16.75;8.80;;;-4.80;99.70;;;;;;5027123;28;20403;-84
2021/12/28 01:19:44;;;;;;;18.85;9.82;;;-4.80;99.40;;;;;;5044387;28;20097;-86
2021/12/28 01:22:10;;;;;;;18.88;8.98;;;-4.90;99.20;;;;;;5017306;28;20472;-85
2021/12/28 01:24:36;;;;;;;17.63;9.23;;;-4.90;99.10;;;;;;5035433;28;20029;-86
2021/12/28 01:27:01;;;;;;;19.23;9.43;;;-4.90;99.10;;;;;;5017315;28;20044;-87
2021/12/28 01:29:28;;;;;;;21.02;10.18;;;-4.90;99.00;;;;;;5017547;28;20030;-86
2021/12/28 01:31:53;;;;;;;21.58;10.00;;;-4.90;98.90;;;;;;5034976;28;20030;-86
2021/12/28 01:34:19;;;;;;;22.45;9.75;;;-4.90;99.00;;;;;;5017103;28;20078;-89
2021/12/28 01:36:45;;;;;;;24.73;10.20;;;-4.90;99.00;;;;;;5035163;28;20040;-86
2021/12/28 01:39:11;;;;;;;27.50;11.02;;;-4.90;99.00;;;;;;5017521;28;20033;-86
2021/12/28 01:41:37;;;;;;;27.00;10.57;;;-4.90;99.00;;;;;;5016845;28;20124;-86
2021/12/28 01:44:08;;;;;;;27.60;11.23;;;-4.50;99.20;;;;;;5000375;28;20033;-88
2021/12/28 01:46:34;;;;;;;;;;;-4.90;98.80;;;;;;5017120;28;20029;-87
2021/12/28 01:49:02;;;;;;;20.95;8.85;;;-4.90;98.70;;;;;;5035161;28;20359;-86
2021/12/28 01:51:28;;;;;;;17.30;9.40;;;-4.90;98.90;;;;;;5034940;28;20111;-87
2021/12/28 01:53:56;;;;;;;20.92;9.48;;;-4.90;98.80;;;;;;5034718;28;20140;-87
2021/12/28 01:56:30;;;;;;;17.38;9.45;;;-4.90;99.20;;;;;;5016955;28;20027;-86
2021/12/28 01:58:56;;;;;;;17.55;8.85;;;-4.90;98.70;;;;;;5034593;28;20040;-86
2021/12/28 02:01:23;;;;;;;17.25;9.23;;;-4.90;98.90;;;;;;5034673;28;20033;-88
2021/12/28 02:03:49;;;;;;;19.13;9.40;;;-4.90;98.80;;;;;;4994379;28;20049;-87
2021/12/28 02:06:17;;;;;;;16.27;8.75;;;-4.90;98.90;;;;;;4994649;28;20052;-87
2021/12/28 02:08:44;;;;;;;18.30;8.38;;;-4.90;98.80;;;;;;4977743;28;20034;-86
2021/12/28 02:11:12;;;;;;;16.65;8.23;;;-4.90;98.70;;;;;;4995064;28;20485;-86
2021/12/28 02:13:38;;;;;;;21.20;9.18;;;-4.90;98.70;;;;;;4995304;28;20492;-86
2021/12/28 02:16:05;;;;;;;17.80;8.45;;;-4.90;98.70;;;;;;4996255;28;20030;-85
2021/12/28 02:18:35;;;;;;;23.58;8.80;;;-4.80;98.50;;;;;;4980016;28;20540;-84
2021/12/28 02:21:04;;;;;;;17.70;8.70;;;-4.80;98.20;;;;;;4980560;28;20069;-85
2021/12/28 02:23:31;;;;;;;23.45;10.48;;;-4.80;98.20;;;;;;4996535;28;20027;-85
2021/12/28 02:25:58;;;;;;;19.70;8.90;;;-4.90;98.30;;;;;;4999803;28;20026;-85
2021/12/28 02:28:24;;;;;;;15.57;7.93;;;-4.90;98.20;;;;;;4998208;28;20031;-87
2021/12/28 02:30:52;;;;;;;16.52;8.30;;;-4.80;98.40;;;;;;4998691;28;20365;-87
2021/12/28 02:33:20;;;;;;;18.88;8.15;;;-4.90;98.30;;;;;;4997663;28;20052;-86
2021/12/28 02:35:47;;;;;;;20.30;9.75;;;-4.80;98.30;;;;;;4998827;28;20097;-89
2021/12/28 02:38:13;;;;;;;16.70;8.48;;;-4.80;98.20;;;;;;4981549;28;20084;-89
2021/12/28 02:40:42;;;;;;;15.63;7.82;;;-4.80;98.20;;;;;;4981372;28;20026;-87
2021/12/28 02:43:10;;;;;;;15.07;8.27;;;-4.80;98.10;;;;;;4998720;28;20094;-87
2021/12/28 02:45:39;;;;;;;16.77;8.52;;;-4.80;98.00;;;;;;4998581;28;20038;-87
2021/12/28 02:48:06;;;;;;;17.33;9.30;;;-4.80;97.80;;;;;;4997299;28;20054;-88
2021/12/28 02:50:42;;;;;;;17.35;9.27;;;-4.80;97.80;;;;;;4981436;28;20045;-87
2021/12/28 02:53:09;;;;;;;19.15;9.50;;;-4.80;97.60;;;;;;4998102;28;20031;-87
2021/12/28 02:55:36;;;;;;;17.52;9.18;;;-4.80;97.80;;;;;;4981507;28;20037;-87
2021/12/28 02:58:08;;;;;;;17.88;8.93;;;-4.80;97.70;;;;;;4996817;28;20384;-87
2021/12/28 03:00:43;;;;;;;18.95;10.10;;;-4.70;97.80;;;;;;4999087;28;20046;-88
2021/12/28 03:03:16;;;;;;;17.45;8.90;;;-4.70;97.60;;;;;;4982768;28;20061;-87
2021/12/28 03:05:44;;;;;;;16.65;9.10;;;-4.70;97.30;;;;;;4997793;28;20033;-87
2021/12/28 03:08:11;;;;;;;17.48;9.13;;;-4.70;97.40;;;;;;4980847;28;20022;-86
2021/12/28 03:10:38;;;;;;;18.48;9.27;;;-4.70;97.10;;;;;;4996997;28;20121;-85
2021/12/28 03:13:07;;;;;;;22.40;10.18;;;-4.70;97.00;;;;;;4965137;28;20031;-86
2021/12/28 03:15:34;;;;;;;19.63;10.00;;;-4.80;96.90;;;;;;4998081;28;20038;-85
2021/12/28 03:18:01;;;;;;;20.30;8.93;;;-4.80;96.80;;;;;;4981179;28;20069;-87
2021/12/28 03:20:27;;;;;;;19.95;10.35;;;-4.70;96.80;;;;;;4999920;28;20380;-86
2021/12/28 03:22:53;;;;;;;20.70;9.70;;;-4.80;96.90;;;;;;4981602;28;20477;-86
2021/12/28 03:25:18;;;;;;;18.45;9.63;;;-4.80;97.00;;;;;;5008876;28;20029;-87
2021/12/28 03:27:44;;;;;;;19.05;10.25;;;-4.70;96.70;;;;;;5008835;28;20031;-85
2021/12/28 03:30:14;;;;;;;20.40;9.93;;;-4.70;96.50;;;;;;5004871;28;20037;-87
2021/12/28 03:32:40;;;;;;;23.83;10.77;;;-4.70;96.30;;;;;;4996829;28;20117;-87
2021/12/28 03:35:08;;;;;;;20.52;10.23;;;-4.70;96.30;;;;;;4980470;28;20531;-86
2021/12/28 03:37:35;;;;;;;19.00;9.90;;;-4.70;96.40;;;;;;4980681;28;20034;-88
2021/12/28 03:40:04;;;;;;;20.08;10.20;;;-4.70;96.10;;;;;;4997232;28;20361;-89
2021/12/28 03:42:30;;;;;;;27.80;12.05;;;-4.70;95.90;;;;;;4981019;28;20033;-88
2021/12/28 03:44:56;;;;;;;21.77;10.13;;;-4.70;95.80;;;;;;4980998;28;20026;-88
2021/12/28 03:47:22;;;;;;;18.75;9.82;;;-4.70;96.10;;;;;;4980151;28;20464;-87
2021/12/28 03:49:47;;;;;;;20.10;10.05;;;-4.70;96.00;;;;;;4997132;28;20389;-87
2021/12/28 03:52:13;;;;;;;21.55;10.88;;;-4.70;95.80;;;;;;4997991;28;20453;-88
2021/12/28 03:54:40;;;;;;;20.13;10.13;;;-4.70;95.70;;;;;;4980502;28;20453;-87
2021/12/28 03:57:06;;;;;;;25.80;11.50;;;-4.70;95.60;;;;;;4997512;28;20380;-87
2021/12/28 03:59:32;;;;;;;21.85;11.23;;;-4.70;95.30;;;;;;4997581;28;20030;-87
2021/12/28 04:01:57;;;;;;;20.95;10.10;;;-4.70;95.20;;;;;;4979635;28;20030;-86
2021/12/28 04:04:24;;;;;;;21.17;10.20;;;-4.70;95.20;;;;;;4998090;28;20033;-85
2021/12/28 04:06:50;;;;;;;21.33;10.05;;;-4.70;95.30;;;;;;4997384;28;20109;-85
2021/12/28 04:09:23;;;;;;;20.80;10.07;;;-4.70;95.10;;;;;;4979974;28;20165;-86
2021/12/28 04:11:49;;;;;;;18.58;9.93;;;-4.70;95.10;;;;;;4980093;28;20499;-86
2021/12/28 04:14:15;;;;;;;20.63;10.82;;;-4.70;95.20;;;;;;4997110;28;20480;-86
2021/12/28 04:16:40;;;;;;;24.20;11.82;;;-4.70;95.00;;;;;;4979005;28;20049;-86
2021/12/28 04:19:06;;;;;;;22.98;11.73;;;-4.70;94.60;;;;;;4998393;28;20110;-87
2021/12/28 04:21:34;;;;;;;20.30;10.65;;;-4.70;94.20;;;;;;4998470;28;20192;-86
2021/12/28 04:24:00;;;;;;;22.08;10.82;;;-4.60;94.30;;;;;;4981534;28;20117;-84
2021/12/28 04:26:28;;;;;;;21.38;10.73;;;-4.70;94.10;;;;;;4998759;28;20058;-86
2021/12/28 04:28:54;;;;;;;23.98;11.38;;;-4.70;93.80;;;;;;4999074;28;20037;-84
2021/12/28 04:31:20;;;;;;;18.20;10.15;;;-4.70;93.40;;;;;;5007161;28;20485;-84
2021/12/28 04:33:46;;;;;;;19.15;10.40;;;-4.70;93.30;;;;;;4987217;28;20030;-84
2021/12/28 04:36:14;;;;;;;18.67;9.27;;;-4.70;93.50;;;;;;4998558;28;20037;-86
2021/12/28 04:38:43;;;;;;;22.45;11.27;;;-4.70;93.60;;;;;;4996348;28;20389;-89
2021/12/28 04:41:11;;;;;;;20.92;10.43;;;-4.70;93.20;;;;;;4996194;28;20030;-88
2021/12/28 04:43:37;;;;;;;19.23;10.02;;;-4.70;93.00;;;;;;4978667;28;20073;-87
2021/12/28 04:46:04;;;;;;;19.48;9.82;;;-4.70;93.20;;;;;;4978304;28;20129;-87
2021/12/28 04:48:31;;;;;;;21.45;10.73;;;-4.70;93.20;;;;;;4991332;28;20051;-88
2021/12/28 04:50:57;;;;;;;22.55;11.60;;;-4.70;93.00;;;;;;4979960;28;20038;-89
2021/12/28 04:53:23;;;;;;;23.88;11.20;;;-4.70;92.80;;;;;;4976967;28;20503;-87
2021/12/28 04:55:51;;;;;;;21.33;11.35;;;-4.70;92.60;;;;;;4975719;28;20065;-86
2021/12/28 04:58:20;;;;;;;21.35;10.65;;;-4.70;92.20;;;;;;4977182;28;20114;-87
2021/12/28 05:00:48;;;;;;;22.95;11.00;;;-4.70;92.20;;;;;;4974801;28;20031;-87
2021/12/28 05:03:15;;;;;;;21.20;11.07;;;-4.70;92.00;;;;;;4976361;28;20095;-87
2021/12/28 05:05:44;;;;;;;20.40;9.85;;;-4.70;92.20;;;;;;4975265;28;20413;-88
2021/12/28 05:08:13;;;;;;;19.10;9.65;;;-4.70;92.20;;;;;;4976361;28;20484;-88
2021/12/28 05:10:40;;;;;;;21.67;10.77;;;-4.70;91.60;;;;;;4976876;28;20030;-87
2021/12/28 05:13:06;;;;;;;18.55;9.93;;;-4.70;91.70;;;;;;4959334;28;20027;-85
2021/12/28 05:15:34;;;;;;;19.65;9.57;;;-4.70;91.80;;;;;;4976108;28;20030;-86
2021/12/28 05:17:59;;;;;;;22.17;10.45;;;-4.60;91.70;;;;;;4975521;28;20489;-83
2021/12/28 05:20:25;;;;;;;19.23;9.40;;;-4.60;91.70;;;;;;4975484;28;20033;-86
2021/12/28 05:22:51;;;;;;;22.27;9.73;;;-4.60;91.50;;;;;;4975168;28;20027;-84
2021/12/28 05:25:17;;;;;;;18.90;9.93;;;-4.70;91.20;;;;;;4977535;28;20027;-83
2021/12/28 05:27:43;;;;;;;18.20;9.50;;;-4.60;91.10;;;;;;4977511;28;20065;-86
2021/12/28 05:30:09;;;;;;;18.17;8.88;;;-4.60;91.00;;;;;;4979759;28;20031;-87
2021/12/28 05:32:35;;;;;;;16.05;9.15;;;-4.60;91.30;;;;;;4981141;28;20027;-83
2021/12/28 05:35:02;;;;;;;19.95;10.18;;;-4.60;91.20;;;;;;4986677;28;20432;-81
2021/12/28 05:37:28;;;;;;;23.08;11.68;;;-4.50;91.00;;;;;;4993320;28;20105;-85
2021/12/28 05:39:55;;;;;;;21.58;10.43;;;-4.50;90.60;;;;;;4999920;28;20114;-83
2021/12/28 05:42:21;;;;;;;17.30;9.15;;;-4.60;90.60;;;;;;4994656;28;20500;-85
2021/12/28 05:44:49;;;;;;;18.30;9.43;;;-4.60;90.50;;;;;;4998966;28;20141;-85
2021/12/28 05:47:16;;;;;;;18.73;9.35;;;-4.60;90.70;;;;;;4995597;28;20182;-85
2021/12/28 05:49:42;;;;;;;32.60;17.20;;;-4.60;90.60;;;;;;4996019;28;20132;-84
2021/12/28 05:52:07;;;;;;;28.08;14.05;;;-4.60;90.60;;;;;;5014430;28;20127;-85
2021/12/28 05:54:34;;;;;;;20.65;11.13;;;-4.60;90.50;;;;;;4995690;28;20040;-91
2021/12/28 05:57:14;;;;;;;21.92;11.15;;;-4.50;90.20;;;;;;4980180;28;20061;-88
2021/12/28 05:59:40;;;;;;;23.27;11.25;;;-4.50;90.10;;;;;;5013651;28;20480;-89
2021/12/28 06:02:06;;;;;;;23.50;10.95;;;-4.50;89.80;;;;;;4995344;28;20132;-90
2021/12/28 06:04:37;;;;;;;20.33;10.68;;;-4.60;89.10;;;;;;4995641;28;20117;-89
2021/12/28 06:07:05;;;;;;;;;;;-4.60;89.40;;;;;;4994405;28;20042;-91
2021/12/28 06:09:50;;;;;;;19.63;9.05;;;-4.50;86.60;;;;;;4994905;28;20279;-90
2021/12/28 06:12:16;;;;;;;18.65;9.07;;;-4.60;88.30;;;;;;4995882;28;20037;-83
2021/12/28 06:14:42;;;;;;;17.90;9.25;;;-4.60;89.50;;;;;;4996759;28;20029;-85
2021/12/28 06:17:08;;;;;;;21.00;10.07;;;-4.50;90.00;;;;;;5013030;28;20497;-83
2021/12/28 06:19:34;;;;;;;20.30;10.25;;;-4.50;89.10;;;;;;4996349;28;20093;-83
2021/12/28 06:21:59;;;;;;;22.25;10.68;;;-4.50;88.70;;;;;;4997442;28;20526;-84
2021/12/28 06:24:25;;;;;;;21.55;10.18;;;-4.50;88.90;;;;;;5014772;28;20061;-82
2021/12/28 06:26:51;;;;;;;22.60;10.13;;;-4.50;89.30;;;;;;5014463;28;20094;-84
2021/12/28 06:29:18;;;;;;;18.67;10.15;;;-4.50;90.00;;;;;;5014510;28;20057;-86
2021/12/28 06:31:43;;;;;;;49.15;23.15;;;-4.50;90.00;;;;;;5014772;28;20445;-87
2021/12/28 06:34:10;;;;;;;35.97;17.20;;;-4.40;90.30;;;;;;5014653;28;20077;-86
2021/12/28 06:36:37;;;;;;;31.83;14.48;;;-4.40;90.20;;;;;;5018305;28;20116;-82
2021/12/28 06:39:03;;;;;;;25.95;12.98;;;-4.30;89.80;;;;;;5004821;28;20034;-82
2021/12/28 06:41:29;;;;;;;23.45;11.05;;;-4.30;89.50;;;;;;5001477;28;20391;-79
2021/12/28 06:43:54;;;;;;;19.98;9.90;;;-4.30;88.90;;;;;;5014186;28;20022;-81
2021/12/28 06:46:20;;;;;;;20.63;10.57;;;-4.30;89.30;;;;;;4996478;28;20030;-80
2021/12/28 06:48:46;;;;;;;19.08;9.55;;;-4.30;89.40;;;;;;4995916;28;20065;-81
2021/12/28 06:51:13;;;;;;;23.10;10.85;;;-4.30;89.30;;;;;;4996475;28;20420;-81
2021/12/28 06:53:39;;;;;;;20.25;9.75;;;-4.30;89.30;;;;;;4997313;28;20030;-81
2021/12/28 06:56:05;;;;;;;19.33;9.98;;;-4.40;89.20;;;;;;4996959;28;20121;-81
2021/12/28 06:58:31;;;;;;;18.27;9.70;;;-4.40;89.70;;;;;;4996230;28;20350;-80
2021/12/28 07:00:57;;;;;;;20.65;10.10;;;-4.40;89.10;;;;;;4996260;28;20048;-82
2021/12/28 07:03:23;;;;;;;21.00;10.40;;;-4.40;88.90;;;;;;4996843;28;20034;-87
2021/12/28 07:05:49;;;;;;;19.20;10.10;;;-4.40;89.30;;;;;;4996295;28;20084;-82
2021/12/28 07:08:15;;;;;;;22.27;10.65;;;-4.40;89.40;;;;;;5014371;28;20033;-82
2021/12/28 07:10:42;;;;;;;21.23;10.35;;;-4.40;89.00;;;;;;5015872;28;20053;-82
2021/12/28 07:13:08;;;;;;;19.08;9.77;;;-4.50;89.40;;;;;;5000975;28;20367;-83
2021/12/28 07:15:34;;;;;;;18.35;10.02;;;-4.40;89.70;;;;;;5000526;28;20061;-81
2021/12/28 07:18:00;;;;;;;21.85;10.25;;;-4.50;88.90;;;;;;4999736;28;20022;-86
2021/12/28 07:20:26;;;;;;;21.52;10.52;;;-4.40;89.20;;;;;;5000768;28;20049;-83
2021/12/28 07:22:52;;;;;;;17.45;9.18;;;-4.40;88.90;;;;;;4997892;28;20027;-84
2021/12/28 07:25:18;;;;;;;20.15;10.15;;;-4.40;89.20;;;;;;4997621;28;20089;-83
2021/12/28 07:27:44;;;;;;;20.38;9.75;;;-4.30;88.70;;;;;;4981086;28;20042;-81
2021/12/28 07:30:13;;;;;;;103.28;46.20;;;-4.30;88.30;;;;;;4997743;28;20026;-82
2021/12/28 07:32:40;;;;;;;52.50;25.77;;;-4.30;88.20;;;;;;4980434;28;20033;-84
2021/12/28 07:35:07;;;;;;;36.00;17.20;;;-4.30;88.00;;;;;;4980627;28;20456;-84
2021/12/28 07:37:33;;;;;;;29.80;13.90;;;-4.30;87.80;;;;;;4997580;28;20097;-81
2021/12/28 07:39:59;;;;;;;23.92;12.27;;;-4.30;88.10;;;;;;4982174;28;20026;-82
2021/12/28 07:42:25;;;;;;;36.67;17.70;;;-4.30;87.70;;;;;;5003783;28;20376;-82
2021/12/28 07:44:51;;;;;;;31.85;15.80;;;-4.30;87.00;;;;;;5011808;28;20030;-82
2021/12/28 07:47:17;;;;;;;29.55;14.20;;;-4.40;86.80;;;;;;4997505;28;20046;-82
2021/12/28 07:49:43;;;;;;;23.38;10.98;;;-4.40;86.80;;;;;;4998361;28;20171;-82
2021/12/28 07:52:09;;;;;;;21.42;10.55;;;-4.40;86.70;;;;;;5015829;28;20559;-82
2021/12/28 07:54:34;;;;;;;24.42;11.45;;;-4.40;86.90;;;;;;5015847;28;20026;-83
2021/12/28 07:57:00;;;;;;;21.25;10.75;;;-4.40;87.00;;;;;;5016838;28;20045;-81
2021/12/28 07:59:26;;;;;;;22.55;10.38;;;-4.40;86.80;;;;;;5016081;28;20100;-82
2021/12/28 08:01:52;;;;;;;21.80;10.05;;;-4.40;86.60;;;;;;5016111;28;20030;-82
2021/12/28 08:04:17;;;;;;;22.27;11.05;;;-4.40;86.50;;;;;;4998520;28;20076;-82
2021/12/28 08:06:44;;;;;;;21.25;10.70;;;-4.40;86.20;;;;;;5015388;28;20057;-83
2021/12/28 08:09:10;;;;;;;21.38;10.57;;;-4.30;86.20;;;;;;4998491;28;20036;-82
2021/12/28 08:11:36;;;;;;;25.70;9.82;;;-4.40;85.60;;;;;;4998448;28;20014;-82
2021/12/28 08:14:04;;;;;;;21.27;9.38;;;-4.30;85.70;;;;;;5015729;28;20026;-82
2021/12/28 08:16:30;;;;;;;18.55;9.18;;;-4.30;84.50;;;;;;5016755;28;20037;-81
2021/12/28 08:18:56;;;;;;;19.25;9.57;;;-4.30;85.10;;;;;;4998839;28;20030;-81
2021/12/28 08:21:22;;;;;;;20.48;10.10;;;-4.20;84.60;;;;;;5016511;28;20032;-81
2021/12/28 08:23:47;;;;;;;19.15;8.88;;;-4.30;84.20;;;;;;5017067;28;20030;-82
2021/12/28 08:26:16;;;;;;;17.42;8.50;;;-4.20;84.00;;;;;;5017510;28;20045;-82
2021/12/28 08:28:42;;;;;;;18.20;9.23;;;-4.20;83.00;;;;;;5016375;28;20030;-80
2021/12/28 08:31:08;;;;;;;17.65;8.93;;;-4.20;82.00;;;;;;4998306;28;20522;-81
2021/12/28 08:33:34;;;;;;;21.15;9.60;;;-4.20;81.80;;;;;;5015757;28;20034;-81
2021/12/28 08:36:00;;;;;;;20.75;9.02;;;-4.30;79.80;;;;;;5016347;28;20026;-80
2021/12/28 08:38:25;;;;;;;16.45;7.88;;;-4.30;79.20;;;;;;5017370;28;20141;-81
2021/12/28 08:40:51;;;;;;;13.93;7.30;;;-4.20;79.70;;;;;;5016505;28;20061;-81
2021/12/28 08:43:17;;;;;;;15.60;8.10;;;-4.20;79.50;;;;;;5017924;28;20107;-80
2021/12/28 08:45:43;;;;;;;16.80;7.38;;;-4.20;78.70;;;;;;5021932;28;20041;-81
2021/12/28 08:48:11;;;;;;;16.00;7.85;;;-4.20;78.90;;;;;;5016519;28;20064;-81
2021/12/28 08:50:38;;;;;;;15.77;8.00;;;-4.20;78.70;;;;;;4998529;28;20030;-81
2021/12/28 08:53:04;;;;;;;13.23;7.18;;;-4.20;79.00;;;;;;5016176;28;20022;-81
2021/12/28 08:55:30;;;;;;;14.68;7.13;;;-4.20;78.90;;;;;;4998086;28;20097;-81
2021/12/28 08:57:55;;;;;;;14.60;7.00;;;-4.20;79.50;;;;;;4998105;28;20026;-80
2021/12/28 09:00:25;;;;;;;16.42;7.05;;;-4.30;80.00;;;;;;4998641;28;20070;-80
2021/12/28 09:02:52;;;;;;;13.43;8.02;;;-4.30;80.50;;;;;;5016676;28;20026;-81
2021/12/28 09:05:18;;;;;;;20.33;7.75;;;-4.30;81.50;;;;;;4998558;28;20113;-82
2021/12/28 09:07:44;;;;;;;15.65;7.50;;;-4.40;82.50;;;;;;5015261;28;20130;-81
2021/12/28 09:10:10;;;;;;;13.40;6.70;;;-4.40;83.40;;;;;;5015717;28;20030;-81
2021/12/28 09:12:36;;;;;;;15.05;7.05;;;-4.40;84.70;;;;;;4998696;28;20054;-80
2021/12/28 09:15:04;;;;;;;17.52;7.10;;;-4.50;85.90;;;;;;4999251;28;20064;-82
2021/12/28 09:17:34;;;;;;;16.55;7.75;;;-4.50;87.00;;;;;;5016044;28;20037;-81
2021/12/28 09:20:03;;;;;;;14.25;8.02;;;-4.60;89.30;;;;;;4998235;28;20476;-83
2021/12/28 09:22:29;;;;;;;18.65;8.18;;;-4.60;90.40;;;;;;4998209;28;20093;-81
2021/12/28 09:24:55;;;;;;;22.58;8.88;;;-4.70;90.80;;;;;;4998203;28;20026;-80
2021/12/28 09:27:20;;;;;;;16.20;6.65;;;-4.70;91.40;;;;;;5015668;28;20475;-81
2021/12/28 09:29:46;;;;;;;16.48;8.18;;;-4.70;91.80;;;;;;4997506;28;20030;-81
2021/12/28 09:32:12;;;;;;;15.73;7.68;;;-4.70;92.30;;;;;;5015443;28;20022;-81
2021/12/28 09:34:37;;;;;;;16.42;7.47;;;-4.80;92.70;;;;;;5014628;28;20471;-82
2021/12/28 09:37:03;;;;;;;16.17;7.40;;;-4.80;93.40;;;;;;5015398;28;20030;-81
2021/12/28 09:39:30;;;;;;;12.43;5.82;;;-4.80;93.40;;;;;;5014592;28;20399;-81
2021/12/28 09:42:00;;;;;;;15.50;8.20;;;-4.70;93.50;;;;;;5015436;28;20018;-81
2021/12/28 09:44:28;;;;;;;18.08;8.13;;;-4.80;94.10;;;;;;5015283;28;20030;-81
2021/12/28 09:46:54;;;;;;;15.10;7.40;;;-4.80;93.90;;;;;;5002828;28;20365;-81
2021/12/28 09:49:20;;;;;;;16.73;7.70;;;-4.70;94.00;;;;;;5021712;28;20565;-80
2021/12/28 09:51:46;;;;;;;16.88;7.88;;;-4.80;94.20;;;;;;5020729;28;20026;-82
2021/12/28 09:54:11;;;;;;;14.98;7.45;;;-4.80;94.40;;;;;;5014831;28;20029;-81
2021/12/28 09:56:37;;;;;;;16.10;7.85;;;-4.80;94.90;;;;;;4997160;28;20034;-81
2021/12/28 09:59:04;;;;;;;16.25;7.88;;;-4.80;95.00;;;;;;5014967;28;20444;-82
2021/12/28 10:01:30;;;;;;;18.90;8.55;;;-4.80;95.50;;;;;;4997597;28;20026;-82
2021/12/28 10:03:57;;;;;;;16.60;8.00;;;-4.90;95.50;;;;;;4996799;28;20036;-82
2021/12/28 10:06:26;;;;;;;18.15;7.35;;;-4.90;95.90;;;;;;5014978;28;20034;-81
2021/12/28 10:09:08;;;;;;;16.67;7.53;;;-4.90;96.20;;;;;;5014777;28;20034;-81
2021/12/28 10:11:39;;;;;;;16.70;8.45;;;-4.90;96.80;;;;;;4997417;28;20026;-82
2021/12/28 10:14:14;;;;;;;20.25;9.05;;;-4.90;97.70;;;;;;4997587;28;20030;-81
2021/12/28 10:16:49;;;;;;;21.25;10.57;;;-4.90;97.80;;;;;;4997237;28;20157;-81
2021/12/28 10:19:43;;;;;;;18.30;9.77;;;-4.90;97.50;;;;;;5015151;28;20025;-80
2021/12/28 10:22:27;;;;;;;18.75;8.40;;;-4.80;98.60;;;;;;5012925;28;20045;-82
2021/12/28 10:24:59;;;;;;;17.45;8.25;;;-4.80;97.60;;;;;;5015187;28;20034;-81
2021/12/28 10:27:28;;;;;;;17.33;7.95;;;-4.80;97.40;;;;;;5014335;28;20125;-81
2021/12/28 10:29:59;;;;;;;16.40;7.63;;;-4.80;97.30;;;;;;4997298;28;20113;-81
2021/12/28 10:32:28;;;;;;;15.98;7.50;;;-4.80;97.00;;;;;;5014191;28;20057;-81
2021/12/28 10:34:57;;;;;;;18.75;9.13;;;-4.80;97.00;;;;;;4997426;28;20022;-82
2021/12/28 10:37:27;;;;;;;23.75;11.02;;;-4.80;97.90;;;;;;5016495;28;20054;-81
2021/12/28 10:39:56;;;;;;;17.92;8.98;;;-4.80;97.90;;;;;;5015492;28;20080;-81
2021/12/28 10:42:45;;;;;;;17.83;8.60;;;-4.80;97.90;;;;;;5014521;28;20092;-81
2021/12/28 10:45:16;;;;;;;18.00;7.60;;;-4.80;98.30;;;;;;4998946;28;20112;-81
2021/12/28 10:47:42;;;;;;;15.45;7.82;;;-4.80;97.80;;;;;;5000512;28;20054;-81
2021/12/28 10:50:34;;;;;;;15.07;7.82;;;-4.80;97.80;;;;;;5003969;28;20057;-80
2021/12/28 10:53:14;;;;;;;14.65;7.00;;;-4.80;98.50;;;;;;5006798;28;20048;-80
2021/12/28 10:55:42;;;;;;;16.55;7.97;;;-4.90;98.90;;;;;;5026699;28;20026;-80
2021/12/28 10:58:10;;;;;;;17.65;8.30;;;-4.90;98.40;;;;;;5000987;28;20099;-82
2021/12/28 11:00:37;;;;;;;16.05;7.75;;;-4.80;98.80;;;;;;5017681;28;20034;-82
2021/12/28 11:03:16;;;;;;;26.25;13.30;;;-4.90;99.10;;;;;;5000413;28;20030;-82
2021/12/28 11:05:47;;;;;;;32.00;15.20;;;-4.90;99.90;;;;;;5018906;28;20032;-81
2021/12/28 11:08:14;;;;;;;23.58;11.68;;;-4.80;99.40;;;;;;5017553;28;20040;-82
2021/12/28 11:10:53;;;;;;;20.17;9.50;;;-4.90;99.60;;;;;;5017402;28;20029;-82
2021/12/28 11:13:24;;;;;;;18.55;8.05;;;-4.80;99.90;;;;;;4999835;28;20034;-81
2021/12/28 11:15:51;;;;;;;17.30;8.13;;;-4.80;99.80;;;;;;4999589;28;20030;-84
2021/12/28 11:18:33;;;;;;;16.15;8.32;;;-4.80;99.80;;;;;;5017843;28;20392;-82
2021/12/28 11:21:08;;;;;;;16.58;8.23;;;-4.80;99.90;;;;;;5000552;28;20056;-82
2021/12/28 11:23:34;;;;;;;17.90;8.60;;;-4.80;99.90;;;;;;5000129;28;20028;-81
2021/12/28 11:26:09;;;;;;;16.85;8.68;;;-4.90;99.90;;;;;;5000543;28;20113;-81
2021/12/28 11:28:35;;;;;;;21.70;10.07;;;-4.90;99.90;;;;;;5001102;28;20468;-83
2021/12/28 11:31:04;;;;;;;16.15;8.30;;;-4.90;99.90;;;;;;4999592;28;20029;-81
2021/12/28 11:33:48;;;;;;;13.90;7.93;;;-4.90;99.90;;;;;;5017129;28;20096;-82
2021/12/28 11:36:15;;;;;;;14.00;7.05;;;-4.90;99.90;;;;;;5017923;28;20049;-81
2021/12/28 11:38:41;;;;;;;16.00;7.65;;;-4.90;99.90;;;;;;5017229;28;20034;-81
2021/12/28 11:41:08;;;;;;;17.20;7.93;;;-4.90;99.90;;;;;;4999232;28;20026;-81
2021/12/28 11:43:36;;;;;;;14.85;7.70;;;-4.80;99.90;;;;;;5017316;28;20033;-82
2021/12/28 11:46:03;;;;;;;20.50;7.95;;;-4.80;99.90;;;;;;5017428;28;20022;-82
2021/12/28 11:48:30;;;;;;;18.30;8.35;;;-4.80;99.90;;;;;;5017089;28;20077;-81
2021/12/28 11:50:55;;;;;;;17.30;8.13;;;-4.90;99.90;;;;;;4999649;28;20456;-81
2021/12/28 11:53:22;;;;;;;20.65;10.77;;;-4.90;99.90;;;;;;5017086;28;20048;-81
2021/12/28 11:55:48;;;;;;;19.27;8.93;;;-4.90;99.90;;;;;;5006165;28;20032;-82
2021/12/28 11:58:14;;;;;;;19.10;8.73;;;-4.90;99.90;;;;;;5026219;28;20124;-80
2021/12/28 12:00:41;;;;;;;14.60;7.70;;;-4.90;99.90;;;;;;5001327;28;20034;-81
2021/12/28 12:03:07;;;;;;;14.65;7.72;;;-4.90;99.90;;;;;;4998899;28;20033;-83
2021/12/28 12:05:34;;;;;;;15.00;7.90;;;-4.90;99.90;;;;;;4998927;28;20022;-81
2021/12/28 12:08:03;;;;;;;16.17;7.90;;;-4.90;99.90;;;;;;4998865;28;20045;-82
2021/12/28 12:10:35;;;;;;;18.58;8.63;;;-4.90;99.90;;;;;;5016376;28;20075;-82
2021/12/28 12:13:04;;;;;;;17.95;8.27;;;-4.90;99.90;;;;;;5016892;28;20026;-81
2021/12/28 12:15:42;;;;;;;17.23;8.30;;;-4.80;99.90;;;;;;4998900;28;20036;-81
2021/12/28 12:18:11;;;;;;;20.85;10.15;;;-4.80;99.90;;;;;;4999681;28;20026;-82
2021/12/28 12:20:37;;;;;;;20.40;10.70;;;-4.80;99.90;;;;;;4998301;28;20056;-79
2021/12/28 12:23:12;;;;;;;16.58;8.60;;;-4.80;99.90;;;;;;4998897;28;20390;-81
2021/12/28 12:25:48;;;;;;;17.70;8.13;;;-4.80;99.90;;;;;;4998426;28;20072;-81
2021/12/28 12:28:14;;;;;;;22.00;10.43;;;-4.80;99.90;;;;;;4998138;28;20065;-81
2021/12/28 12:30:44;;;;;;;15.95;8.02;;;-4.90;99.90;;;;;;5016191;28;20029;-82
2021/12/28 12:33:12;;;;;;;22.33;9.53;;;-4.90;99.90;;;;;;4997971;28;20048;-83
2021/12/28 12:35:52;;;;;;;16.77;8.18;;;-5.00;99.90;;;;;;4998949;28;20453;-82